Hartville, WY

11:41 PM MDT on July 29, 2014 (GMT -0600)
RAWS CASPER PORTABLE WY US (MTS954) Elev 4785 ft | 42.39 °N, 104.81 °W | Change Station

Current weather conditions updated 40 minutes ago

Rain
Rain
57 °F
Feels Like 57 °F
N
0
Wind Variable Wind from North
Gusts 2.0 mph

Tomorrow is forecast to be Much Cooler than today. Morning thundershowers.

Today
High -- | Low -- °F
--% Chance of Precip.
Yesterday
High -- | Low -- °F
Precip. -- in
5:48 AM 8:21 PM
Waxing Crescent, 9% visible
Pressure 30.16 in
Visibility 10.0 miles
Clouds Mostly Cloudy 11000 ft
Dew Point 54 °F
Humidity 90%
Rainfall 0.22 in
Snow Depth Not available.
UV 0 out of 12
Pollen 7.00 out of 12
Air Quality Not available.
Flu Activity Not available.
METAR KTOR 300453Z AUTO 00000KT 10SM BKN110 17/17 A3026 RMK AO2 RAE38 SLP211 P0000 T01720167

More Conditions Fewer Conditions

Pressure 30.16 in
Visibility 10.0 miles
Clouds Mostly Cloudy 11000 ft
Dew Point 54 °F
Humidity 90%
Rainfall 0.22 in
Snow Depth Not available.
UV 0 out of 12
Pollen 7.00 out of 12
Air Quality Not available.
Flu Activity Not available.
METAR KTOR 300453Z AUTO 00000KT 10SM BKN110 17/17 A3026 RMK AO2 RAE38 SLP211 P0000 T01720167

More Conditions Fewer Conditions

10-Day Weather Forecast

Almanac

Astronomy

Jul. 29, 2014 Rise Set
Actual Time 5:48 AM MDT 8:21 PM MDT
Civil Twilight 5:16 AM MDT 8:53 PM MDT
Nautical Twilight 4:36 AM MDT 9:33 PM MDT
Astronomical Twilight 3:50 AM MDT 10:18 PM MDT
Moon 8:31 AM MDT (7/29) 9:30 PM MDT (7/29)
Length of Visible Light 15h 37m
Length of Day
14h 33m
Tomorrow will be 2m 6s shorter.
Waxing Crescent, 9% of the Moon is Illuminated
Jul 30
Waxing Crescent
Aug 3
First Quarter
Aug 10
Full
Aug 17
Last Quarter
Aug 25
New

Yesterday's Extremes

State Highs State Lows

Community

WunderPhotos

Upload Photos

1,739,006 photos uploaded!

WunderBlogs® & News

By Dr. Jeff Masters
Director of Meteorology, Weather Underground
By Kari Strenfel
Meteorologist, Weather Underground
By Christopher C. Burt
Weather Historian, Weather Underground
July 29, 2014
July 29, 2014
July 29, 2014

Nearby

Snow Depth

Station Depth Elevation
Reno Hill 0 in 8500 ft
Crow Creek 4 in 8330 ft
Casper Mountain 1 in 7850 ft
Sand Lake 0 in 10050 ft
Brooklyn Lake 0 in 10220 ft

Earthquake Activity

City Distance Mag. Time & Date
No recent earthquake activity has been reported nearby.
Minimum magnitude displayed is 2.5.

Coastal Water Temperatures

Place Temperature
No Stations Reporting

Nearby Weather Stations

Station Location Temp. Dew Point Humidity Wind Precip. Elev Updated Type
HADS GUERNSEY DAM WEATHER STATION NEA WY, Guernsey, WY 59 °F - - North  at  - 0.03 in / hr 4479 ft 10:30 PM MDT MADIS
RAWS CASPER PORTABLE WY, Hartville, WY 57 °F 54 °F 90% North  at  0 mph 0.01 in / hr 4785 ft 11:01 PM MDT MADIS
HADS GLENDO DAM WEATHER STATION AT GL WY, Glendo, WY 57 °F - - SSW  at  3 mph 0.03 in / hr 4778 ft 10:30 PM MDT MADIS

Show More Stations Show Fewer Stations